Time,TemperatureF,DewpointF,PressureIn,WindDirection,WindDirectionDegrees,WindSpeedMPH,WindSpeedGustMPH,Humidity,HourlyPrecipIn,Conditions,Clouds,dailyrainin,SolarRadiationWatts/m^2,SoftwareType,DateUTC
2013-05-04 00:01:00,62.0,39.0,-100.00,East,81,3.0,4.0,42,0.00,,,0.00,0.000000,,2013-05-04 07:01:00,
2013-05-04 00:11:00,62.0,39.0,-100.00,East,81,3.0,4.0,42,0.00,,,0.00,0.000000,,2013-05-04 07:11:00,
2013-05-04 00:21:00,62.0,39.0,-100.00,East,81,3.0,4.0,42,0.00,,,0.00,0.000000,,2013-05-04 07:21:00,
2013-05-04 00:52:00,59.0,38.0,-100.00,ENE,69,2.0,5.0,46,0.00,,,0.00,0.000000,,2013-05-04 07:52:00,
2013-05-04 01:01:00,59.0,38.0,-100.00,ENE,69,2.0,5.0,46,0.00,,,0.00,0.000000,,2013-05-04 08:01:00,
2013-05-04 01:11:00,59.0,38.0,-100.00,ENE,69,2.0,5.0,46,0.00,,,0.00,0.000000,,2013-05-04 08:11:00,
2013-05-04 01:21:00,59.0,38.0,-100.00,ENE,69,2.0,5.0,46,0.00,,,0.00,0.000000,,2013-05-04 08:21:00,
2013-05-04 01:52:00,58.0,40.0,-100.00,NNE,21,0.0,4.0,52,0.00,,,0.00,0.000000,,2013-05-04 08:52:00,
2013-05-04 02:02:00,58.0,40.0,-100.00,NNE,21,0.0,4.0,52,0.00,,,0.00,0.000000,,2013-05-04 09:02:00,
2013-05-04 02:11:00,58.0,40.0,-100.00,NNE,21,0.0,4.0,52,0.00,,,0.00,0.000000,,2013-05-04 09:11:00,
2013-05-04 02:21:00,58.0,40.0,-100.00,NNE,21,0.0,4.0,52,0.00,,,0.00,0.000000,,2013-05-04 09:21:00,
2013-05-04 02:53:00,62.0,39.0,-100.00,West,273,4.0,5.0,42,0.00,,,0.00,0.000000,,2013-05-04 09:53:00,
2013-05-04 03:53:00,59.0,42.0,-100.00,WNW,303,7.0,9.0,53,-99.99,,,0.00,0.000000,,2013-05-04 10:53:00,
2013-05-04 04:02:00,59.0,42.0,-100.00,WNW,303,7.0,9.0,53,-99.99,,,0.00,0.000000,,2013-05-04 11:02:00,
2013-05-04 04:11:00,59.0,42.0,-100.00,WNW,303,7.0,9.0,53,-99.99,,,0.00,0.000000,,2013-05-04 11:11:00,
2013-05-04 04:21:00,59.0,42.0,-100.00,WNW,303,7.0,9.0,53,-99.99,,,0.00,0.000000,,2013-05-04 11:21:00,
2013-05-04 05:01:00,58.0,43.0,-100.00,WNW,288,6.0,10.0,58,0.00,,,0.00,0.000000,,2013-05-04 12:01:00,
2013-05-04 05:52:00,56.0,42.0,-100.00,WSW,240,4.0,9.0,60,0.00,,,0.00,0.000000,,2013-05-04 12:52:00,
2013-05-04 06:01:00,56.0,42.0,-100.00,WSW,240,4.0,9.0,60,0.00,,,0.00,0.000000,,2013-05-04 13:01:00,
2013-05-04 06:11:00,56.0,42.0,-100.00,WSW,240,4.0,9.0,60,0.00,,,0.00,0.000000,,2013-05-04 13:11:00,
2013-05-04 06:21:00,56.0,42.0,-100.00,WSW,240,4.0,9.0,60,0.00,,,0.00,0.000000,,2013-05-04 13:21:00,
2013-05-04 06:52:00,69.0,30.0,-100.00,NW,325,4.0,10.0,23,0.00,,,0.00,3.000000,,2013-05-04 13:52:00,
2013-05-04 07:52:00,73.0,33.0,-100.00,North,11,5.0,10.0,23,-99.99,,,0.00,31.000000,,2013-05-04 14:52:00,
2013-05-04 08:53:00,77.0,33.0,-100.00,NE,35,4.0,13.0,20,-99.99,,,0.00,192.000000,,2013-05-04 15:53:00,
2013-05-04 09:03:00,77.0,33.0,-100.00,NE,35,4.0,13.0,20,-99.99,,,0.00,192.000000,,2013-05-04 16:03:00,
2013-05-04 09:52:00,79.0,44.0,-100.00,ENE,57,4.0,12.0,29,-99.99,,,0.00,486.000000,,2013-05-04 16:52:00,
2013-05-04 10:52:00,75.0,47.0,-100.00,SW,226,7.0,11.0,37,0.00,,,0.00,664.000000,,2013-05-04 17:52:00,
2013-05-04 11:01:00,75.0,47.0,-100.00,SW,226,7.0,11.0,37,0.00,,,0.00,664.000000,,2013-05-04 18:01:00,
2013-05-04 11:12:00,75.0,47.0,-100.00,SW,226,7.0,11.0,37,0.00,,,0.00,664.000000,,2013-05-04 18:12:00,
2013-05-04 11:21:00,75.0,47.0,-100.00,SW,226,7.0,11.0,37,0.00,,,0.00,664.000000,,2013-05-04 18:21:00,
2013-05-04 11:52:00,81.0,45.0,-100.00,SSW,195,6.0,10.0,28,0.00,,,0.00,801.000000,,2013-05-04 18:52:00,
2013-05-04 12:01:00,81.0,45.0,-100.00,SSW,195,6.0,10.0,28,0.00,,,0.00,801.000000,,2013-05-04 19:01:00,
2013-05-04 12:11:00,81.0,45.0,-100.00,SSW,195,6.0,10.0,28,0.00,,,0.00,801.000000,,2013-05-04 19:11:00,
2013-05-04 12:21:00,81.0,45.0,-100.00,SSW,195,6.0,10.0,28,0.00,,,0.00,801.000000,,2013-05-04 19:21:00,
2013-05-04 12:52:00,84.0,41.0,-100.00,SSW,201,10.0,15.0,22,0.00,,,0.00,883.000000,,2013-05-04 19:52:00,
2013-05-04 13:02:00,84.0,41.0,-100.00,SSW,201,10.0,15.0,22,0.00,,,0.00,883.000000,,2013-05-04 20:02:00,
2013-05-04 13:11:00,84.0,41.0,-100.00,SSW,201,10.0,15.0,22,0.00,,,0.00,883.000000,,2013-05-04 20:11:00,
2013-05-04 13:21:00,84.0,41.0,-100.00,SSW,201,10.0,15.0,22,0.00,,,0.00,883.000000,,2013-05-04 20:21:00,
2013-05-04 13:52:00,86.0,43.0,-100.00,SSW,204,12.0,20.0,22,0.00,,,0.00,911.000000,,2013-05-04 20:52:00,
2013-05-04 14:02:00,86.0,43.0,-100.00,SSW,204,12.0,20.0,22,0.00,,,0.00,911.000000,,2013-05-04 21:02:00,
2013-05-04 14:11:00,86.0,43.0,-100.00,SSW,204,12.0,20.0,22,0.00,,,0.00,911.000000,,2013-05-04 21:11:00,
2013-05-04 14:22:00,86.0,43.0,-100.00,SSW,204,12.0,20.0,22,0.00,,,0.00,911.000000,,2013-05-04 21:22:00,
2013-05-04 14:53:00,80.0,40.0,-100.00,SW,225,16.0,24.0,24,0.00,,,0.00,904.000000,,2013-05-04 21:53:00,
2013-05-04 15:03:00,80.0,40.0,-100.00,SW,225,16.0,24.0,24,0.00,,,0.00,904.000000,,2013-05-04 22:03:00,
2013-05-04 15:12:00,80.0,40.0,-100.00,SW,225,16.0,24.0,24,0.00,,,0.00,904.000000,,2013-05-04 22:12:00,
2013-05-04 15:22:00,80.0,40.0,-100.00,SW,225,16.0,24.0,24,0.00,,,0.00,904.000000,,2013-05-04 22:22:00,
2013-05-04 15:52:00,76.0,41.0,-100.00,SSW,213,13.0,20.0,28,0.00,,,-99.99,834.000000,,2013-05-04 22:52:00,
2013-05-04 16:02:00,76.0,41.0,-100.00,SSW,213,13.0,20.0,28,0.00,,,-99.99,834.000000,,2013-05-04 23:02:00,
2013-05-04 16:11:00,76.0,41.0,-100.00,SSW,213,13.0,20.0,28,0.00,,,-99.99,834.000000,,2013-05-04 23:11:00,
2013-05-04 16:21:00,76.0,41.0,-100.00,SSW,213,13.0,20.0,28,0.00,,,-99.99,834.000000,,2013-05-04 23:21:00,
2013-05-04 16:52:00,74.0,43.0,-100.00,SW,218,8.0,18.0,33,0.00,,,-99.99,710.000000,,2013-05-04 23:52:00,
2013-05-04 17:01:00,74.0,43.0,-100.00,SW,218,8.0,18.0,33,0.00,,,-99.99,710.000000,,2013-05-05 00:01:00,
2013-05-04 17:11:00,74.0,43.0,-100.00,SW,218,8.0,18.0,33,0.00,,,-99.99,710.000000,,2013-05-05 00:11:00,
2013-05-04 17:21:00,74.0,43.0,-100.00,SW,218,8.0,18.0,33,0.00,,,-99.99,710.000000,,2013-05-05 00:21:00,
2013-05-04 17:52:00,71.0,43.0,-100.00,SW,215,8.0,14.0,36,0.00,,,0.00,546.000000,,2013-05-05 00:52:00,
2013-05-04 18:01:00,71.0,43.0,-100.00,SW,215,8.0,14.0,36,0.00,,,0.00,546.000000,,2013-05-05 01:01:00,
2013-05-04 18:11:00,71.0,43.0,-100.00,SW,215,8.0,14.0,36,0.00,,,0.00,546.000000,,2013-05-05 01:11:00,
2013-05-04 18:21:00,71.0,43.0,-100.00,SW,215,8.0,14.0,36,0.00,,,0.00,546.000000,,2013-05-05 01:21:00,
2013-05-04 18:52:00,69.0,47.0,-100.00,SSW,210,8.0,12.0,46,0.00,,,0.00,358.000000,,2013-05-05 01:52:00,
2013-05-04 19:02:00,69.0,47.0,-100.00,SSW,210,8.0,12.0,46,0.00,,,0.00,358.000000,,2013-05-05 02:02:00,
2013-05-04 19:11:00,69.0,47.0,-100.00,SSW,210,8.0,12.0,46,0.00,,,0.00,358.000000,,2013-05-05 02:11:00,
2013-05-04 19:21:00,69.0,47.0,-100.00,SSW,210,8.0,12.0,46,0.00,,,0.00,358.000000,,2013-05-05 02:21:00,
2013-05-04 19:52:00,63.0,48.0,-100.00,SW,225,10.0,12.0,57,0.00,,,0.00,174.000000,,2013-05-05 02:52:00,
2013-05-04 20:01:00,63.0,48.0,-100.00,SW,225,10.0,12.0,57,0.00,,,0.00,174.000000,,2013-05-05 03:01:00,
2013-05-04 20:11:00,63.0,48.0,-100.00,SW,225,10.0,12.0,57,0.00,,,0.00,174.000000,,2013-05-05 03:11:00,
2013-05-04 20:21:00,63.0,48.0,-100.00,SW,225,10.0,12.0,57,0.00,,,0.00,174.000000,,2013-05-05 03:21:00,
2013-05-04 20:53:00,55.0,52.0,-100.00,WSW,245,8.0,13.0,88,0.00,,,0.00,20.000000,,2013-05-05 03:53:00,
2013-05-04 21:02:00,55.0,52.0,-100.00,WSW,245,8.0,13.0,88,0.00,,,0.00,20.000000,,2013-05-05 04:02:00,
2013-05-04 21:12:00,55.0,52.0,-100.00,WSW,245,8.0,13.0,88,0.00,,,0.00,20.000000,,2013-05-05 04:12:00,
2013-05-04 21:22:00,55.0,52.0,-100.00,WSW,245,8.0,13.0,88,0.00,,,0.00,20.000000,,2013-05-05 04:22:00,
2013-05-04 21:52:00,52.0,52.0,-100.00,West,262,5.0,11.0,99,0.00,,,0.00,0.000000,,2013-05-05 04:52:00,
2013-05-04 22:02:00,52.0,52.0,-100.00,West,262,5.0,11.0,99,0.00,,,0.00,0.000000,,2013-05-05 05:02:00,
2013-05-04 22:12:00,52.0,52.0,-100.00,West,262,5.0,11.0,99,0.00,,,0.00,0.000000,,2013-05-05 05:12:00,
2013-05-04 22:21:00,52.0,52.0,-100.00,West,262,5.0,11.0,99,0.00,,,0.00,0.000000,,2013-05-05 05:21:00,
2013-05-04 22:52:00,52.0,52.0,-100.00,WSW,258,8.0,13.0,99,0.00,,,-99.99,0.000000,,2013-05-05 05:52:00,
2013-05-04 23:01:00,52.0,52.0,-100.00,WSW,258,8.0,13.0,99,0.00,,,-99.99,0.000000,,2013-05-05 06:01:00,
2013-05-04 23:11:00,52.0,52.0,-100.00,WSW,258,8.0,13.0,99,0.00,,,-99.99,0.000000,,2013-05-05 06:11:00,
2013-05-04 23:21:00,52.0,52.0,-100.00,WSW,258,8.0,13.0,99,0.00,,,-99.99,0.000000,,2013-05-05 06:21:00,
2013-05-04 23:52:00,53.0,52.0,-100.00,WSW,253,6.0,11.0,96,0.00,,,0.00,0.000000,,2013-05-05 06:52:00,